首页
METAR-TAF:

METAR-TAF

机场 :

Donau

纽因堡, 德国

纬度: 48-43N, 经度: 011-13E, 海拔: 380米

当前天气观测

该预报发布于22分钟前的21:42 UTC
风速31节,风向西,有时为41节阵风
温度 1°C
湿度 86%
气压 998 hPa
能見度: 2800
散云层高于1000英尺
阴天层高于2000英尺

METAR: ETSN 272142Z 27031G41KT 2800 SN SCT010 OVC020 01/M01 Q0998 BLACKYLO

时间: 23:04 (22:04 UTC)

预报

该预报发布于1小时和41分钟前的20:23 UTC
预报有效从27日的 21点(UTC)到 28日的 06点(UTC)
风速15节,风向西
能見度: 7000
散云层高于500英尺
多云层高于1500英尺
小雪
短暂存在
从 27日的 21点(UTC)到 28日的 03点(UTC)
风速20节,风向西,有时为45节阵风
能見度: 0500
多云层高于100英尺
多云层高于500英尺, 积雨云.
大阵雪
短暂存在
从 28日的 03点(UTC)到 28日的 06点(UTC)
风速15节,风向西,有时为25节阵风
能見度: 2000
多云层高于500英尺
多云层高于1000英尺, 积雨云.
阵雪

TAF: ETSN 272023Z 2721/2806 26015KT 7000 -SN SCT005 BKN015 TEMPO 2721/2803 27020G45KT 0500 +SHSN BKN001 BKN005CB TEMPO 2803/2806 26015G25KT 2000 SHSN BKN005 BKN010CB BY ETGL

超过4000个机场的气象观测和天气预报(METAR&TAF报告)。

可查询的气象台以黄色和红色小点在地图上表示。

将鼠标移到小点上方,可查看气象台名称。

然后点击查看天气观测和预报。

如需切换地图:点击带黑十字的绿色按钮放大地图;点击带横线的绿色按钮缩小地图;或者点击绿色箭头查看邻近地区的地图。


METAR-TAF: